createdAt,value
2023-01-07T00:01:58.718Z,37.17
2023-01-07T00:04:44.265Z,36.33
2023-01-07T00:07:31.465Z,36.83
2023-01-07T00:10:16.877Z,31.90
2023-01-07T00:13:03.108Z,35.88
2023-01-07T00:15:48.603Z,32.33
2023-01-07T00:18:34.615Z,32.08
2023-01-07T00:21:21.607Z,30.73
2023-01-07T00:24:10.368Z,29.63
2023-01-07T00:26:55.879Z,31.63
2023-01-07T00:29:41.468Z,29.73
2023-01-07T00:32:47.449Z,25.27
2023-01-07T00:35:36.874Z,27.80
2023-01-07T00:38:22.551Z,25.23
2023-01-07T00:41:09.996Z,26.30
2023-01-07T00:43:56.383Z,25.15
2023-01-07T00:46:41.853Z,25.13
2023-01-07T00:49:27.783Z,23.10
2023-01-07T00:52:13.301Z,27.17
2023-01-07T00:54:59.194Z,23.83
2023-01-07T00:57:46.309Z,20.30
2023-01-07T01:00:32.092Z,22.60
2023-01-07T01:03:17.447Z,21.23
2023-01-07T01:06:03.737Z,22.65
2023-01-07T01:08:49.856Z,20.95
2023-01-07T01:11:35.320Z,22.05
2023-01-07T01:14:22.231Z,21.33
2023-01-07T01:17:07.813Z,21.33
2023-01-07T01:19:53.336Z,18.90
2023-01-07T01:22:38.781Z,23.52
2023-01-07T01:25:24.542Z,25.73
2023-01-07T01:28:09.837Z,21.35
2023-01-07T01:30:56.768Z,22.57
2023-01-07T01:33:42.687Z,22.55
2023-01-07T01:36:28.103Z,22.02
2023-01-07T01:39:13.494Z,26.15
2023-01-07T01:41:59.020Z,23.92
2023-01-07T01:44:49.514Z,21.57
2023-01-07T01:47:41.348Z,18.20
2023-01-07T01:50:30.372Z,21.23
2023-01-07T01:53:20.530Z,22.88
2023-01-07T01:56:11.016Z,20.42
2023-01-07T01:59:00.672Z,23.17
2023-01-07T02:01:47.248Z,20.98
2023-01-07T02:04:35.154Z,22.67
2023-01-07T02:07:21.187Z,21.58
2023-01-07T02:10:13.423Z,20.88
2023-01-07T02:13:18.764Z,20.43
2023-01-07T02:16:11.933Z,21.90
2023-01-07T02:19:18.072Z,20.85
2023-01-07T02:22:12.897Z,19.45
2023-01-07T02:25:21.517Z,22.38
2023-01-07T02:28:27.975Z,21.73
2023-01-07T02:31:39.672Z,24.38
2023-01-07T02:34:31.692Z,23.05
2023-01-07T02:37:25.054Z,26.45
2023-01-07T02:40:19.236Z,26.17
2023-01-07T02:43:16.529Z,24.23
2023-01-07T02:46:10.320Z,27.33
2023-01-07T02:48:59.822Z,24.33
2023-01-07T02:51:46.961Z,25.23
2023-01-07T02:54:32.415Z,22.42
2023-01-07T02:57:37.149Z,28.47
2023-01-07T03:00:39.423Z,24.17
2023-01-07T03:03:40.833Z,23.17
2023-01-07T03:06:43.572Z,25.52
2023-01-07T03:09:40.181Z,22.25
2023-01-07T03:12:33.571Z,23.63
2023-01-07T03:15:27.501Z,26.05
2023-01-07T03:18:19.574Z,25.05
2023-01-07T03:21:09.991Z,22.05
2023-01-07T03:23:58.730Z,21.60
2023-01-07T03:26:48.948Z,22.40
2023-01-07T03:29:35.827Z,21.73
2023-01-07T03:32:25.925Z,18.63
2023-01-07T03:35:11.527Z,20.90
2023-01-07T03:37:59.849Z,22.30
2023-01-07T03:40:45.611Z,21.13
2023-01-07T03:43:32.304Z,19.27
2023-01-07T03:46:18.061Z,20.35
2023-01-07T03:49:03.433Z,19.00
2023-01-07T03:51:49.621Z,19.98
2023-01-07T03:54:35.217Z,19.07
2023-01-07T03:57:20.486Z,21.45
2023-01-07T04:00:10.623Z,18.30
2023-01-07T04:02:56.185Z,17.50
2023-01-07T04:05:41.951Z,16.48
2023-01-07T04:08:27.195Z,18.17
2023-01-07T04:11:12.590Z,19.85
2023-01-07T04:14:00.731Z,20.20
2023-01-07T04:16:47.705Z,20.35
2023-01-07T04:19:33.439Z,19.88
2023-01-07T04:22:18.886Z,19.50
2023-01-07T04:25:04.566Z,19.77
2023-01-07T04:27:50.058Z,19.80
2023-01-07T04:30:35.938Z,18.08
2023-01-07T04:33:22.912Z,17.88
2023-01-07T04:36:09.101Z,20.77
2023-01-07T04:38:54.695Z,19.00
2023-01-07T04:41:40.161Z,23.17
2023-01-07T04:44:25.543Z,21.92
2023-01-07T04:47:10.799Z,22.42
2023-01-07T04:49:57.396Z,23.70
2023-01-07T04:52:42.832Z,24.38
2023-01-07T04:55:28.308Z,22.55
2023-01-07T04:58:13.749Z,25.08
2023-01-07T05:01:00.251Z,26.08
2023-01-07T05:03:46.021Z,25.27
2023-01-07T05:06:32.726Z,25.80
2023-01-07T05:09:18.376Z,26.30
2023-01-07T05:12:04.324Z,26.52
2023-01-07T05:14:49.570Z,24.67
2023-01-07T05:17:35.244Z,27.67
2023-01-07T05:20:20.511Z,27.27
2023-01-07T05:23:07.610Z,24.52
2023-01-07T05:25:52.794Z,27.00
2023-01-07T05:28:38.035Z,27.85
2023-01-07T05:31:23.455Z,25.33
2023-01-07T05:34:08.808Z,26.10
2023-01-07T05:36:54.294Z,25.83
2023-01-07T05:39:41.079Z,24.23
2023-01-07T05:42:26.999Z,25.65
2023-01-07T05:45:12.525Z,26.30
2023-01-07T05:47:57.803Z,25.98
2023-01-07T05:50:43.160Z,25.25
2023-01-07T05:53:28.349Z,26.10
2023-01-07T05:56:15.058Z,27.83
2023-01-07T05:59:00.655Z,26.77
2023-01-07T06:01:45.966Z,29.33
2023-01-07T06:04:31.476Z,28.15
2023-01-07T06:07:17.302Z,30.40
2023-01-07T06:10:03.414Z,27.08
2023-01-07T06:12:51.406Z,25.90
2023-01-07T06:15:37.172Z,26.40
2023-01-07T06:18:22.922Z,25.75
2023-01-07T06:21:08.359Z,24.70
2023-01-07T06:23:53.865Z,26.75
2023-01-07T06:26:39.145Z,28.20
2023-01-07T06:29:25.751Z,27.23
2023-01-07T06:32:11.005Z,25.73
2023-01-07T06:34:56.230Z,28.48
2023-01-07T06:37:41.521Z,28.80
2023-01-07T06:40:27.133Z,37.00
2023-01-07T06:43:12.882Z,30.95
2023-01-07T06:45:59.662Z,33.70
2023-01-07T06:48:45.063Z,32.50
2023-01-07T06:51:30.591Z,35.88
2023-01-07T06:54:16.194Z,33.77
2023-01-07T06:57:01.710Z,34.95
2023-01-07T06:59:47.030Z,35.83
2023-01-07T07:02:33.694Z,36.45
2023-01-07T07:05:19.374Z,38.90
2023-01-07T07:08:05.196Z,41.87
2023-01-07T07:10:50.461Z,42.13
2023-01-07T07:13:36.090Z,42.08
2023-01-07T07:16:24.132Z,43.72
2023-01-07T07:19:11.062Z,42.13
2023-01-07T07:21:57.032Z,40.97
2023-01-07T07:24:42.470Z,42.70
2023-01-07T07:27:27.730Z,41.90
2023-01-07T07:30:13.763Z,41.08
2023-01-07T07:33:02.011Z,39.67
2023-01-07T07:35:49.489Z,40.67
2023-01-07T07:38:35.160Z,40.35
2023-01-07T07:41:20.287Z,48.95
2023-01-07T07:44:06.144Z,52.72
2023-01-07T07:46:51.548Z,54.58
2023-01-07T07:49:37.212Z,56.90
2023-01-07T07:52:23.947Z,53.90
2023-01-07T07:55:20.687Z,52.28
2023-01-07T07:58:12.355Z,54.63
2023-01-07T08:00:58.063Z,55.22
2023-01-07T08:03:43.887Z,50.70
2023-01-07T08:06:29.305Z,53.03
2023-01-07T08:09:16.077Z,55.45
2023-01-07T08:12:01.554Z,55.25
2023-01-07T08:14:46.960Z,52.97
2023-01-07T08:17:32.310Z,51.73
2023-01-07T08:20:17.955Z,48.10
2023-01-07T08:23:06.376Z,55.25
2023-01-07T08:25:53.459Z,55.17
2023-01-07T08:28:39.359Z,63.35
2023-01-07T08:31:25.302Z,63.93
2023-01-07T08:34:11.072Z,65.10
2023-01-07T08:36:56.844Z,67.05
2023-01-07T08:39:42.626Z,70.97
2023-01-07T08:42:30.326Z,72.68
2023-01-07T08:45:16.293Z,74.67
2023-01-07T08:48:02.133Z,75.40
2023-01-07T08:50:50.565Z,76.72
2023-01-07T08:53:36.159Z,74.43
2023-01-07T08:56:22.889Z,72.85
2023-01-07T08:59:09.727Z,72.07
2023-01-07T09:01:55.509Z,77.25
2023-01-07T09:04:41.427Z,79.47
2023-01-07T09:07:26.689Z,70.45
2023-01-07T09:10:12.124Z,69.95
2023-01-07T09:12:57.720Z,71.80
2023-01-07T09:15:45.268Z,62.05
2023-01-07T09:18:30.954Z,64.10
2023-01-07T09:21:16.360Z,61.17
2023-01-07T09:24:01.690Z,68.30
2023-01-07T09:26:47.367Z,68.30
2023-01-07T09:29:33.154Z,84.40
2023-01-07T09:32:20.147Z,80.95
2023-01-07T09:35:06.653Z,90.35
2023-01-07T09:37:52.352Z,108.30
2023-01-07T09:40:40.119Z,96.57
2023-01-07T09:44:00.127Z,105.70
2023-01-07T09:46:35.055Z,102.95
2023-01-07T09:49:26.003Z,104.72
2023-01-07T09:52:16.103Z,91.40
2023-01-07T09:55:07.926Z,97.83
2023-01-07T09:57:53.580Z,103.93
2023-01-07T10:00:51.272Z,99.88
2023-01-07T10:03:53.720Z,98.53
2023-01-07T10:06:47.159Z,92.40
2023-01-07T10:09:43.239Z,83.27
2023-01-07T10:12:33.246Z,86.47
2023-01-07T10:15:35.112Z,83.88
2023-01-07T10:18:43.472Z,74.32
2023-01-07T10:21:39.127Z,71.32
2023-01-07T10:24:28.718Z,66.07
2023-01-07T10:27:18.593Z,70.13
2023-01-07T10:30:11.506Z,56.17
2023-01-07T10:33:01.472Z,45.22
2023-01-07T10:35:48.590Z,47.47
2023-01-07T10:38:37.593Z,43.33
2023-01-07T10:41:28.913Z,41.08
2023-01-07T10:44:41.945Z,37.15
2023-01-07T10:47:43.725Z,34.05
2023-01-07T10:50:41.887Z,30.13
2023-01-07T10:53:37.478Z,31.67
2023-01-07T10:56:30.388Z,25.98
2023-01-07T10:59:18.226Z,24.73
2023-01-07T11:02:04.836Z,24.80
2023-01-07T11:04:50.427Z,22.88
2023-01-07T11:07:43.639Z,24.57
2023-01-07T11:10:33.264Z,24.63
2023-01-07T11:13:25.667Z,23.30
2023-01-07T11:16:13.910Z,23.27
2023-01-07T11:19:03.954Z,27.33
2023-01-07T11:21:50.470Z,25.00
2023-01-07T11:24:36.560Z,24.15
2023-01-07T11:27:24.544Z,24.85
2023-01-07T11:30:23.327Z,24.92
2023-01-07T11:33:21.548Z,24.23
2023-01-07T11:36:08.696Z,27.03
2023-01-07T11:39:09.323Z,25.27
2023-01-07T11:41:57.691Z,25.80
2023-01-07T11:44:43.285Z,23.85
2023-01-07T11:47:30.143Z,24.55
2023-01-07T11:50:27.774Z,23.10
2023-01-07T11:53:34.209Z,23.10
2023-01-07T11:56:24.814Z,23.90
2023-01-07T11:59:28.233Z,22.73
2023-01-07T12:02:25.494Z,23.85
2023-01-07T12:05:23.022Z,23.17
2023-01-07T12:08:19.528Z,22.63
2023-01-07T12:11:08.864Z,23.15
2023-01-07T12:13:54.810Z,23.90
2023-01-07T12:16:40.702Z,22.73
2023-01-07T12:19:42.254Z,21.87
2023-01-07T12:22:39.840Z,23.42
2023-01-07T12:25:34.635Z,23.10
2023-01-07T12:28:33.422Z,23.10
2023-01-07T12:31:27.596Z,25.35
2023-01-07T12:34:26.498Z,20.20
2023-01-07T12:37:24.521Z,20.40
2023-01-07T12:40:27.098Z,22.25
2023-01-07T12:43:17.223Z,18.00
2023-01-07T12:46:04.851Z,20.08
2023-01-07T12:49:02.316Z,17.67
2023-01-07T12:51:55.330Z,18.55
2023-01-07T12:54:48.920Z,20.30
2023-01-07T12:57:38.279Z,20.58
2023-01-07T13:00:27.638Z,22.88
2023-01-07T13:03:24.803Z,19.30
2023-01-07T13:06:16.219Z,20.33
2023-01-07T13:09:09.158Z,21.52
2023-01-07T13:12:40.537Z,20.33
2023-01-07T13:15:29.288Z,22.85
2023-01-07T13:18:16.793Z,24.37
2023-01-07T13:21:07.673Z,31.52
2023-01-07T13:24:14.156Z,33.63
2023-01-07T13:27:13.334Z,34.53
2023-01-07T13:30:11.133Z,38.13
2023-01-07T13:33:22.736Z,52.93
2023-01-07T13:36:21.491Z,43.75
2023-01-07T13:39:20.109Z,39.92
2023-01-07T13:42:19.453Z,40.15
2023-01-07T13:45:14.375Z,40.95
2023-01-07T13:48:03.295Z,48.50
2023-01-07T13:50:59.118Z,47.17
2023-01-07T13:53:46.993Z,50.95
2023-01-07T13:56:38.426Z,56.63
2023-01-07T13:59:48.115Z,59.97
2023-01-07T14:02:55.211Z,55.80
2023-01-07T14:05:40.601Z,55.05
2023-01-07T14:08:29.137Z,55.88
2023-01-07T14:11:14.645Z,55.85
2023-01-07T14:14:07.187Z,57.53
2023-01-07T14:17:00.909Z,52.37
2023-01-07T14:19:50.364Z,48.00
2023-01-07T14:22:45.155Z,52.80
2023-01-07T14:25:43.039Z,52.80
2023-01-07T14:28:48.752Z,52.85
2023-01-07T14:31:34.915Z,52.37
2023-01-07T14:34:24.041Z,51.58
2023-01-07T14:37:30.118Z,55.33
2023-01-07T14:40:58.347Z,56.03
2023-01-07T14:44:02.459Z,54.50
2023-01-07T14:46:49.824Z,51.43
2023-01-07T14:49:57.135Z,50.10
2023-01-07T14:53:04.883Z,47.63
2023-01-07T14:56:04.539Z,47.85
2023-01-07T14:59:11.529Z,48.55
2023-01-07T15:02:31.411Z,47.20
2023-01-07T15:05:39.395Z,48.50
2023-01-07T15:08:45.730Z,50.88
2023-01-07T15:11:51.912Z,56.35
2023-01-07T15:15:02.552Z,56.50
2023-01-07T15:17:48.104Z,54.53
2023-01-07T15:20:44.277Z,65.35
2023-01-07T15:23:37.805Z,64.93
2023-01-07T15:26:32.130Z,66.32
2023-01-07T15:29:25.764Z,66.57
2023-01-07T15:32:23.576Z,71.00
2023-01-07T15:35:13.408Z,63.85
2023-01-07T15:37:59.392Z,67.45
2023-01-07T15:40:47.050Z,62.80
2023-01-07T15:43:33.622Z,57.47
2023-01-07T15:46:21.253Z,57.23
2023-01-07T15:49:17.346Z,54.35
2023-01-07T15:55:28.817Z,56.03
2023-01-07T15:58:17.584Z,55.85
2023-01-07T16:01:04.669Z,54.90
2023-01-07T16:03:52.601Z,60.53
2023-01-07T16:06:47.074Z,61.03
2023-01-07T16:09:34.258Z,56.47
2023-01-07T16:12:29.124Z,62.72
2023-01-07T16:15:27.620Z,63.23
2023-01-07T16:18:19.183Z,59.80
2023-01-07T16:21:07.296Z,61.15
2023-01-07T16:23:54.618Z,67.80
2023-01-07T16:26:43.121Z,68.15
2023-01-07T16:29:44.597Z,68.00
2023-01-07T16:32:30.279Z,64.32
2023-01-07T16:35:20.417Z,69.25
2023-01-07T16:38:06.510Z,69.45
2023-01-07T16:40:53.938Z,69.35
2023-01-07T16:43:44.293Z,74.97
2023-01-07T16:46:31.369Z,79.68
2023-01-07T16:49:21.862Z,75.97
2023-01-07T16:52:14.124Z,75.18
2023-01-07T16:55:00.137Z,77.50
2023-01-07T16:57:48.189Z,82.83
2023-01-07T17:00:34.257Z,83.57
2023-01-07T17:03:21.277Z,82.22
2023-01-07T17:06:08.270Z,77.38
2023-01-07T17:08:55.696Z,83.75
2023-01-07T17:11:41.764Z,82.70
2023-01-07T17:14:49.023Z,80.05
2023-01-07T17:17:35.167Z,80.35
2023-01-07T17:20:22.642Z,77.35
2023-01-07T17:23:31.791Z,76.18
2023-01-07T17:26:21.522Z,80.80
2023-01-07T17:29:13.307Z,79.32
2023-01-07T17:32:00.875Z,80.18
2023-01-07T17:34:46.438Z,78.97
2023-01-07T17:37:32.929Z,76.35
2023-01-07T17:40:20.656Z,84.37
2023-01-07T17:43:24.249Z,81.10
2023-01-07T17:46:11.963Z,78.32
2023-01-07T17:49:01.003Z,80.25
2023-01-07T17:51:48.814Z,80.25
2023-01-07T17:54:35.525Z,79.13
2023-01-07T17:57:21.605Z,78.05
2023-01-07T18:00:14.390Z,78.70
2023-01-07T18:03:00.470Z,79.72
2023-01-07T18:05:47.529Z,80.65
2023-01-07T18:08:33.253Z,82.70
2023-01-07T18:11:39.340Z,84.88
2023-01-07T18:14:24.946Z,82.55
2023-01-07T18:17:10.694Z,82.38
2023-01-07T18:19:57.030Z,81.95
2023-01-07T18:22:44.081Z,79.37
2023-01-07T18:25:30.717Z,86.20
2023-01-07T18:28:16.177Z,87.13
2023-01-07T18:31:01.339Z,81.63
2023-01-07T18:33:46.840Z,83.20
2023-01-07T18:36:32.441Z,80.03
2023-01-07T18:39:20.726Z,76.95
2023-01-07T18:42:08.174Z,74.35
2023-01-07T18:44:54.000Z,76.28
2023-01-07T18:47:39.327Z,73.45
2023-01-07T18:50:24.921Z,71.73
2023-01-07T18:53:11.277Z,67.57
2023-01-07T18:56:01.926Z,70.40
2023-01-07T18:58:48.213Z,66.43
2023-01-07T19:01:33.850Z,65.70
2023-01-07T19:04:19.573Z,59.83
2023-01-07T19:07:05.744Z,59.60
2023-01-07T19:09:51.368Z,61.92
2023-01-07T19:12:38.221Z,60.15
2023-01-07T19:15:23.639Z,57.83
2023-01-07T19:18:09.377Z,59.60
2023-01-07T19:20:55.365Z,55.83
2023-01-07T19:23:41.295Z,61.20
2023-01-07T19:26:27.428Z,61.42
2023-01-07T19:29:15.295Z,57.20
2023-01-07T19:32:00.938Z,60.00
2023-01-07T19:34:46.608Z,57.55
2023-01-07T19:37:32.030Z,57.35
2023-01-07T19:40:17.982Z,57.15
2023-01-07T19:43:03.720Z,58.78
2023-01-07T19:45:55.537Z,60.53
2023-01-07T19:48:42.000Z,59.03
2023-01-07T19:51:31.059Z,54.63
2023-01-07T19:54:17.606Z,55.42
2023-01-07T19:57:03.316Z,51.83
2023-01-07T19:59:48.682Z,54.47
2023-01-07T20:02:36.935Z,49.17
2023-01-07T20:05:25.936Z,54.58
2023-01-07T20:08:12.028Z,49.75
2023-01-07T20:10:59.425Z,50.70
2023-01-07T20:13:46.783Z,49.37
2023-01-07T20:16:32.227Z,50.78
2023-01-07T20:19:19.277Z,50.70
2023-01-07T20:22:05.508Z,48.05
2023-01-07T20:24:51.109Z,46.00
2023-01-07T20:27:39.946Z,48.13
2023-01-07T20:30:26.179Z,50.35
2023-01-07T20:33:11.897Z,52.08
2023-01-07T20:36:03.884Z,52.85
2023-01-07T20:38:50.572Z,57.08
2023-01-07T20:41:43.139Z,51.73
2023-01-07T20:44:28.502Z,55.08
2023-01-07T20:47:16.774Z,56.53
2023-01-07T20:50:02.670Z,58.38
2023-01-07T20:52:49.992Z,55.17
2023-01-07T20:55:35.750Z,59.17
2023-01-07T20:58:21.177Z,59.65
2023-01-07T21:01:10.752Z,56.63
2023-01-07T21:03:56.550Z,54.75
2023-01-07T21:06:42.216Z,54.47
2023-01-07T21:09:28.965Z,57.80
2023-01-07T21:12:14.569Z,62.20
2023-01-07T21:15:00.008Z,55.35
2023-01-07T21:17:45.534Z,58.47
2023-01-07T21:20:30.945Z,63.60
2023-01-07T21:23:16.437Z,59.13
2023-01-07T21:26:03.542Z,57.30
2023-01-07T21:28:56.726Z,60.45
2023-01-07T21:31:43.539Z,61.25
2023-01-07T21:34:31.933Z,62.72
2023-01-07T21:37:18.073Z,63.83
2023-01-07T21:40:04.270Z,57.72
2023-01-07T21:42:51.414Z,60.28
2023-01-07T21:45:37.364Z,59.05
2023-01-07T21:48:22.901Z,51.83
2023-01-07T21:51:11.034Z,50.97
2023-01-07T21:53:58.123Z,53.35
2023-01-07T21:56:43.841Z,53.65
2023-01-07T21:59:30.787Z,54.35
2023-01-07T22:02:18.863Z,49.72
2023-01-07T22:05:05.750Z,50.00
2023-01-07T22:07:51.433Z,53.17
2023-01-07T22:10:41.454Z,50.25
2023-01-07T22:13:27.585Z,45.97
2023-01-07T22:16:14.713Z,43.42
2023-01-07T22:19:01.963Z,41.20
2023-01-07T22:21:47.655Z,40.92
2023-01-07T22:24:37.173Z,38.65
2023-01-07T22:27:22.897Z,38.17
2023-01-07T22:30:10.777Z,37.22
2023-01-07T22:32:57.727Z,37.50
2023-01-07T22:35:44.129Z,35.85
2023-01-07T22:38:31.304Z,36.03
2023-01-07T22:41:17.124Z,35.42
2023-01-07T22:44:06.289Z,40.72
2023-01-07T22:46:53.343Z,40.77
2023-01-07T22:49:41.899Z,42.17
2023-01-07T22:52:27.565Z,40.17
2023-01-07T22:55:12.975Z,41.80
2023-01-07T22:57:58.843Z,39.80
2023-01-07T23:01:07.030Z,39.07
2023-01-07T23:03:52.467Z,40.42
2023-01-07T23:06:39.363Z,34.20
2023-01-07T23:09:25.008Z,34.28
2023-01-07T23:12:12.139Z,36.25
2023-01-07T23:14:57.530Z,33.47
2023-01-07T23:17:42.972Z,33.25
2023-01-07T23:20:28.545Z,33.95
2023-01-07T23:23:15.513Z,34.88
2023-01-07T23:26:01.151Z,34.75
2023-01-07T23:28:46.557Z,33.33
2023-01-07T23:31:33.500Z,32.67
2023-01-07T23:34:19.542Z,32.83
2023-01-07T23:37:05.367Z,29.98
2023-01-07T23:39:52.844Z,29.40
2023-01-07T23:42:38.635Z,29.27
2023-01-07T23:45:24.024Z,27.42
2023-01-07T23:48:09.444Z,26.50
2023-01-07T23:50:55.473Z,29.15
2023-01-07T23:53:41.643Z,26.90
2023-01-07T23:56:28.809Z,29.53
2023-01-07T23:59:14.535Z,26.15
